createdAt,value
2019-04-07T00:00:46.502Z,3.01
2019-04-07T00:06:35.270Z,3.03
2019-04-07T00:14:59.920Z,2.96
2019-04-07T00:20:30.874Z,2.99
2019-04-07T00:23:10.693Z,2.94
2019-04-07T00:25:50.947Z,2.92
2019-04-07T00:28:31.273Z,2.84
2019-04-07T00:31:18.218Z,2.74
2019-04-07T00:39:45.096Z,2.58
2019-04-07T00:42:13.569Z,2.52
2019-04-07T00:44:42.152Z,2.50
2019-04-07T00:47:21.923Z,2.44
2019-04-07T00:53:11.168Z,2.45
2019-04-07T00:56:20.471Z,2.41
2019-04-07T00:58:55.906Z,2.37
2019-04-07T01:01:24.552Z,2.34
2019-04-07T01:04:03.747Z,2.28
2019-04-07T01:06:31.989Z,2.25
2019-04-07T01:12:20.417Z,2.05
2019-04-07T01:14:57.137Z,1.99
2019-04-07T01:17:24.753Z,1.96
2019-04-07T01:19:52.940Z,1.96
2019-04-07T01:29:06.286Z,1.98
2019-04-07T01:37:16.231Z,1.95
2019-04-07T01:40:25.645Z,2.07
2019-04-07T01:43:20.711Z,2.09
2019-04-07T01:46:28.942Z,2.04
2019-04-07T01:49:16.354Z,2.05
2019-04-07T01:52:12.958Z,2.03
2019-04-07T01:55:32.236Z,1.98
2019-04-07T02:01:40.096Z,1.98
2019-04-07T02:04:48.026Z,2.03
2019-04-07T02:07:35.921Z,2.02
2019-04-07T02:10:44.640Z,2.03
2019-04-07T02:16:53.101Z,2.14
2019-04-07T02:19:36.193Z,2.12
2019-04-07T02:22:27.690Z,2.15
2019-04-07T02:25:03.495Z,2.15
2019-04-07T02:27:46.784Z,2.15
2019-04-07T02:33:55.124Z,2.10
2019-04-07T02:37:04.663Z,2.04
2019-04-07T02:42:57.719Z,1.89
2019-04-07T02:45:45.532Z,1.86
2019-04-07T02:48:33.739Z,1.92
2019-04-07T02:51:54.170Z,1.84
2019-04-07T02:54:38.312Z,1.87
2019-04-07T02:57:26.128Z,1.86
2019-04-07T03:03:41.464Z,1.74
2019-04-07T03:06:39.174Z,1.58
2019-04-07T03:12:45.411Z,1.41
2019-04-07T03:18:42.461Z,1.55
2019-04-07T03:21:33.218Z,1.67
2019-04-07T03:24:21.033Z,1.68
2019-04-07T03:27:20.223Z,1.73
2019-04-07T03:30:09.259Z,1.81
2019-04-07T03:33:26.201Z,1.81
2019-04-07T03:36:29.175Z,1.84
2019-04-07T03:39:20.448Z,1.87
2019-04-07T03:42:15.707Z,1.90
2019-04-07T03:44:59.085Z,1.96
2019-04-07T03:51:06.764Z,2.15
2019-04-07T03:53:54.087Z,2.19
2019-04-07T04:00:02.296Z,2.22
2019-04-07T04:02:50.560Z,2.20
2019-04-07T04:05:52.109Z,2.13
2019-04-07T04:11:20.240Z,1.91
2019-04-07T04:14:36.408Z,1.80
2019-04-07T04:17:16.551Z,1.72
2019-04-07T04:19:44.927Z,1.61
2019-04-07T04:22:14.144Z,1.59
2019-04-07T04:24:43.632Z,1.57
2019-04-07T04:33:33.138Z,1.55
2019-04-07T04:36:01.341Z,1.47
2019-04-07T04:38:29.903Z,1.38
2019-04-07T04:40:58.621Z,1.35
2019-04-07T04:43:27.561Z,1.27
2019-04-07T04:46:36.783Z,1.19
2019-04-07T04:52:18.067Z,1.10
2019-04-07T05:01:26.618Z,1.23
2019-04-07T05:03:54.497Z,1.37
2019-04-07T05:06:22.753Z,1.54
2019-04-07T05:08:51.212Z,1.66
2019-04-07T05:11:30.704Z,1.74
2019-04-07T05:13:59.296Z,1.84
2019-04-07T05:16:27.622Z,1.99
2019-04-07T05:22:38.547Z,2.37
2019-04-07T05:25:07.146Z,2.40
2019-04-07T05:27:54.653Z,2.40
2019-04-07T05:30:23.518Z,2.38
2019-04-07T05:33:32.041Z,2.26
2019-04-07T05:36:12.227Z,2.16
2019-04-07T05:38:40.946Z,2.17
2019-04-07T05:43:55.839Z,2.23
2019-04-07T05:46:25.043Z,2.30
2019-04-07T05:54:56.174Z,2.67
2019-04-07T06:00:33.797Z,2.88
2019-04-07T06:03:13.062Z,2.95
2019-04-07T06:05:52.837Z,3.02
2019-04-07T06:08:29.458Z,3.16
2019-04-07T06:14:40.138Z,3.45
2019-04-07T06:23:02.019Z,3.73
2019-04-07T06:31:33.947Z,4.08
2019-04-07T06:37:02.411Z,4.35
2019-04-07T06:39:39.089Z,4.72
2019-04-07T06:42:25.773Z,4.83
2019-04-07T06:44:54.325Z,4.82
2019-04-07T06:47:42.047Z,4.94
2019-04-07T06:50:57.782Z,5.03
2019-04-07T06:59:54.542Z,5.67
2019-04-07T07:03:04.159Z,5.75
2019-04-07T07:05:57.495Z,5.93
2019-04-07T07:08:54.192Z,6.15
2019-04-07T07:12:18.674Z,6.40
2019-04-07T07:18:23.716Z,7.12
2019-04-07T07:27:08.531Z,7.33
2019-04-07T07:32:56.432Z,8.05
2019-04-07T07:35:32.314Z,8.34
2019-04-07T07:38:00.572Z,8.47
2019-04-07T07:43:38.170Z,8.70
2019-04-07T07:46:06.811Z,8.89
2019-04-07T07:48:42.824Z,9.38
2019-04-07T07:51:50.738Z,9.76
2019-04-07T07:54:31.562Z,9.85
2019-04-07T08:00:21.026Z,10.45
2019-04-07T08:06:02.095Z,10.58
2019-04-07T08:08:30.049Z,11.04
2019-04-07T08:11:38.975Z,11.24
2019-04-07T08:14:18.066Z,11.63
2019-04-07T08:16:55.449Z,11.77
2019-04-07T08:19:38.211Z,11.61
2019-04-07T08:22:07.692Z,11.46
2019-04-07T08:27:45.658Z,11.28
2019-04-07T08:30:54.430Z,11.51
2019-04-07T08:33:30.435Z,11.69
2019-04-07T08:36:42.507Z,11.70
2019-04-07T08:39:23.933Z,12.03
2019-04-07T08:42:26.891Z,12.30
2019-04-07T08:45:26.683Z,13.02
2019-04-07T08:48:01.277Z,13.72
2019-04-07T08:53:50.347Z,14.69
2019-04-07T08:56:18.381Z,15.03
2019-04-07T08:58:46.180Z,15.24
2019-04-07T09:01:54.806Z,15.41
2019-04-07T09:04:24.141Z,15.35
2019-04-07T09:07:33.477Z,15.02
2019-04-07T09:10:20.437Z,14.90
2019-04-07T09:12:47.381Z,14.88
2019-04-07T09:15:55.709Z,14.80
2019-04-07T09:18:52.241Z,15.20
2019-04-07T09:21:42.024Z,14.69
2019-04-07T09:24:34.907Z,14.49
2019-04-07T09:27:23.451Z,13.72
2019-04-07T09:30:17.841Z,13.55
2019-04-07T09:33:26.145Z,13.45
2019-04-07T09:36:09.054Z,13.71
2019-04-07T09:39:04.035Z,14.08
2019-04-07T09:42:10.645Z,14.49
2019-04-07T09:44:46.760Z,14.79
2019-04-07T09:50:36.426Z,14.77
2019-04-07T09:53:48.812Z,15.20
2019-04-07T09:56:40.683Z,15.82
2019-04-07T09:59:28.541Z,15.73
2019-04-07T10:02:16.483Z,15.91
2019-04-07T10:08:07.158Z,16.44
2019-04-07T10:11:03.120Z,15.79
2019-04-07T10:13:51.145Z,15.45
2019-04-07T10:16:39.396Z,14.89
2019-04-07T10:22:42.982Z,14.55
2019-04-07T10:25:37.928Z,14.39
2019-04-07T10:31:32.754Z,14.21
2019-04-07T10:34:28.431Z,14.40
2019-04-07T10:37:06.819Z,15.11
2019-04-07T10:39:57.903Z,14.94
2019-04-07T10:42:50.251Z,15.24
2019-04-07T10:45:28.422Z,15.42
2019-04-07T10:51:45.838Z,16.13
2019-04-07T10:54:54.549Z,16.94
2019-04-07T11:00:15.753Z,16.16
2019-04-07T11:05:43.235Z,14.98
2019-04-07T11:11:58.893Z,15.23
2019-04-07T11:14:46.657Z,15.91
2019-04-07T11:17:34.401Z,16.48
2019-04-07T11:23:31.917Z,16.89
2019-04-07T11:29:00.137Z,16.90
2019-04-07T11:31:48.469Z,17.68
2019-04-07T11:35:02.840Z,17.29
2019-04-07T11:40:53.534Z,15.82
2019-04-07T11:44:00.731Z,16.11
2019-04-07T11:46:48.390Z,16.28
2019-04-07T11:49:55.302Z,17.37
2019-04-07T11:52:42.334Z,17.37
2019-04-07T11:55:18.421Z,18.20
2019-04-07T11:58:26.090Z,18.13
2019-04-07T12:01:01.288Z,17.58
2019-04-07T12:04:09.317Z,17.28
2019-04-07T12:10:17.896Z,16.36
2019-04-07T12:13:10.228Z,15.88
2019-04-07T12:16:05.627Z,15.72
2019-04-07T12:18:54.495Z,15.30
2019-04-07T12:21:43.775Z,14.98
2019-04-07T12:24:39.341Z,14.63
2019-04-07T12:27:27.090Z,14.40
2019-04-07T12:30:15.448Z,14.27
2019-04-07T12:33:04.995Z,14.24
2019-04-07T12:36:26.589Z,14.26
2019-04-07T12:39:19.029Z,14.26
2019-04-07T12:42:08.368Z,14.34
2019-04-07T12:47:57.118Z,14.54
2019-04-07T12:53:45.813Z,14.73
2019-04-07T12:56:34.244Z,14.71
2019-04-07T12:59:29.372Z,14.88
2019-04-07T13:02:19.170Z,15.03
2019-04-07T13:05:13.259Z,15.06
2019-04-07T13:08:24.122Z,15.09
2019-04-07T13:11:26.557Z,15.23
2019-04-07T13:14:09.851Z,15.32
2019-04-07T13:17:04.125Z,15.07
2019-04-07T13:19:51.442Z,14.92
2019-04-07T13:22:58.731Z,14.70
2019-04-07T13:26:07.730Z,14.33
2019-04-07T13:29:02.920Z,14.21
2019-04-07T13:37:53.347Z,14.34
2019-04-07T13:40:44.087Z,14.19
2019-04-07T13:49:38.139Z,14.21
2019-04-07T13:52:26.078Z,14.23
2019-04-07T13:55:14.114Z,14.42
2019-04-07T13:57:59.512Z,14.53
2019-04-07T14:00:53.141Z,14.56
2019-04-07T14:03:40.722Z,14.66
2019-04-07T14:06:28.368Z,15.03
2019-04-07T14:09:15.889Z,15.99
2019-04-07T14:12:22.749Z,16.58
2019-04-07T14:15:10.519Z,15.96
2019-04-07T14:17:58.800Z,14.94
2019-04-07T14:20:46.240Z,14.43
2019-04-07T14:23:26.125Z,14.18
2019-04-07T14:26:14.003Z,14.36
2019-04-07T14:28:58.816Z,14.34
2019-04-07T14:31:57.651Z,14.38
2019-04-07T14:34:45.560Z,14.33
2019-04-07T14:37:40.629Z,14.08
2019-04-07T14:40:49.843Z,13.75
2019-04-07T14:46:40.153Z,13.76
2019-04-07T14:52:44.725Z,14.25
2019-04-07T14:55:39.952Z,14.06
2019-04-07T14:58:28.100Z,13.69
2019-04-07T15:01:16.030Z,13.33
2019-04-07T15:03:44.248Z,13.13
2019-04-07T15:06:52.461Z,13.01
2019-04-07T15:09:40.112Z,12.99
2019-04-07T15:12:28.270Z,13.07
2019-04-07T15:15:37.075Z,13.07
2019-04-07T15:18:05.388Z,13.00
2019-04-07T15:20:34.346Z,13.07
2019-04-07T15:23:13.551Z,13.25
2019-04-07T15:28:44.681Z,13.28
2019-04-07T15:31:13.023Z,13.40
2019-04-07T15:36:51.020Z,13.63
2019-04-07T15:39:30.287Z,13.51
2019-04-07T15:42:33.939Z,13.49
2019-04-07T15:44:54.906Z,13.37
2019-04-07T15:47:23.125Z,13.15
2019-04-07T15:50:10.413Z,12.99
2019-04-07T15:52:41.526Z,12.84
2019-04-07T15:55:56.635Z,12.70
2019-04-07T16:01:28.618Z,12.40
2019-04-07T16:04:37.178Z,12.30
2019-04-07T16:13:40.202Z,12.14
2019-04-07T16:19:13.494Z,12.20
2019-04-07T16:21:42.169Z,12.53
2019-04-07T16:27:23.806Z,14.58
2019-04-07T16:33:12.434Z,16.03
2019-04-07T16:35:41.049Z,15.32
2019-04-07T16:38:17.655Z,14.53
2019-04-07T16:46:34.386Z,12.97
2019-04-07T16:49:46.659Z,12.77
2019-04-07T16:52:20.436Z,12.47
2019-04-07T16:54:48.166Z,12.22
2019-04-07T17:00:38.207Z,11.84
2019-04-07T17:03:54.315Z,11.61
2019-04-07T17:06:22.968Z,11.43
2019-04-07T17:11:53.644Z,11.15
2019-04-07T17:14:22.555Z,11.00
2019-04-07T17:16:59.015Z,10.95
2019-04-07T17:20:07.439Z,10.90
2019-04-07T17:22:36.986Z,10.85
2019-04-07T17:25:14.231Z,10.81
2019-04-07T17:31:09.928Z,10.67
2019-04-07T17:33:39.473Z,10.63
2019-04-07T17:36:08.948Z,10.59
2019-04-07T17:42:11.983Z,10.43
2019-04-07T17:45:02.258Z,10.38
2019-04-07T17:51:12.517Z,10.27
2019-04-07T17:57:27.122Z,10.21
2019-04-07T18:00:41.387Z,10.17
2019-04-07T18:03:41.252Z,10.14
2019-04-07T18:06:34.491Z,10.10
2019-04-07T18:09:29.831Z,10.09
2019-04-07T18:12:38.952Z,10.07
2019-04-07T18:15:36.286Z,10.03
2019-04-07T18:18:30.400Z,10.04
2019-04-07T18:21:37.600Z,10.05
2019-04-07T18:24:46.408Z,10.05
2019-04-07T18:27:34.266Z,10.07
2019-04-07T18:30:42.922Z,10.16
2019-04-07T18:33:30.331Z,10.13
2019-04-07T18:36:38.964Z,10.15
2019-04-07T18:39:27.501Z,10.14
2019-04-07T18:42:36.212Z,10.09
2019-04-07T18:45:23.548Z,10.04
2019-04-07T18:48:12.413Z,9.99
2019-04-07T18:51:10.628Z,10.32
2019-04-07T18:54:24.817Z,10.44
2019-04-07T18:57:20.559Z,10.43
2019-04-07T19:00:31.493Z,10.44
2019-04-07T19:03:51.161Z,10.37
2019-04-07T19:06:46.545Z,10.24
2019-04-07T19:09:39.386Z,10.20
2019-04-07T19:12:36.428Z,10.09
2019-04-07T19:15:17.837Z,9.94
2019-04-07T19:20:45.745Z,9.72
2019-04-07T19:23:33.100Z,9.59
2019-04-07T19:26:32.378Z,9.48
2019-04-07T19:29:20.373Z,9.34
2019-04-07T19:32:07.986Z,9.17
2019-04-07T19:34:55.805Z,9.07
2019-04-07T19:37:44.308Z,8.99
2019-04-07T19:40:53.209Z,8.85
2019-04-07T19:43:37.172Z,8.75
2019-04-07T19:46:27.142Z,8.71
2019-04-07T19:49:22.574Z,8.67
2019-04-07T19:52:16.200Z,8.62
2019-04-07T19:54:51.583Z,8.54
2019-04-07T19:57:39.154Z,8.56
2019-04-07T20:03:50.045Z,8.53
2019-04-07T20:06:37.229Z,8.48
2019-04-07T20:12:46.646Z,8.40
2019-04-07T20:15:57.484Z,8.28
2019-04-07T20:18:52.010Z,8.23
2019-04-07T20:21:41.418Z,8.13
2019-04-07T20:24:38.059Z,8.07
2019-04-07T20:27:31.941Z,7.96
2019-04-07T20:30:19.289Z,7.95
2019-04-07T20:33:29.867Z,7.83
2019-04-07T20:36:24.127Z,7.86
2019-04-07T20:39:17.483Z,7.83
2019-04-07T20:45:13.170Z,7.76
2019-04-07T20:48:01.652Z,7.73
2019-04-07T20:51:10.414Z,7.76
2019-04-07T21:00:03.392Z,7.80
2019-04-07T21:03:20.325Z,7.75
2019-04-07T21:06:10.847Z,7.71
2019-04-07T21:12:19.706Z,7.64
2019-04-07T21:18:09.420Z,7.57
2019-04-07T21:21:07.952Z,7.67
2019-04-07T21:27:08.954Z,7.56
2019-04-07T21:30:14.730Z,7.57
2019-04-07T21:33:11.550Z,7.52
2019-04-07T21:39:00.974Z,7.52
2019-04-07T21:42:07.469Z,7.50
2019-04-07T21:44:50.442Z,7.44
2019-04-07T21:50:58.531Z,7.28
2019-04-07T21:54:05.652Z,7.19
2019-04-07T21:56:53.965Z,7.12
2019-04-07T21:59:48.900Z,7.09
2019-04-07T22:02:40.617Z,7.01
2019-04-07T22:05:57.232Z,6.95
2019-04-07T22:08:50.128Z,6.94
2019-04-07T22:11:22.675Z,6.97
2019-04-07T22:14:08.722Z,6.92
2019-04-07T22:17:16.937Z,6.92
2019-04-07T22:23:09.205Z,6.88
2019-04-07T22:26:20.236Z,6.96
2019-04-07T22:28:59.856Z,6.91
2019-04-07T22:34:09.844Z,6.92
2019-04-07T22:48:58.323Z,6.79
2019-04-07T22:54:05.768Z,6.79
2019-04-07T23:02:44.651Z,6.74
2019-04-07T23:05:12.956Z,6.67
2019-04-07T23:10:42.190Z,6.73
2019-04-07T23:13:21.705Z,6.66
2019-04-07T23:16:10.834Z,6.68
2019-04-07T23:18:31.811Z,6.61
2019-04-07T23:20:59.898Z,6.61
2019-04-07T23:26:17.924Z,6.53
2019-04-07T23:28:47.173Z,6.48
2019-04-07T23:31:15.899Z,6.45
2019-04-07T23:34:25.350Z,6.49
2019-04-07T23:37:01.529Z,6.52
2019-04-07T23:39:49.600Z,6.48
2019-04-07T23:42:28.717Z,6.42
2019-04-07T23:44:56.999Z,6.44
2019-04-07T23:47:24.917Z,6.42
2019-04-07T23:50:12.704Z,6.44
2019-04-07T23:53:13.021Z,6.41
2019-04-07T23:55:42.172Z,6.38
2019-04-07T23:58:18.780Z,6.38
